createdAt,value
2022-11-17T00:02:30.539Z,47.44
2022-11-17T00:08:54.953Z,47.51
2022-11-17T00:15:19.330Z,47.57
2022-11-17T00:21:46.443Z,47.66
2022-11-17T00:28:10.869Z,47.77
2022-11-17T00:34:35.266Z,47.91
2022-11-17T00:40:59.704Z,47.98
2022-11-17T00:47:24.147Z,48.10
2022-11-17T00:53:48.506Z,48.16
2022-11-17T01:00:12.884Z,48.26
2022-11-17T01:06:37.473Z,48.34
2022-11-17T01:13:01.818Z,48.43
2022-11-17T01:19:26.118Z,48.45
2022-11-17T01:25:50.599Z,48.53
2022-11-17T01:32:17.650Z,48.52
2022-11-17T01:38:42.022Z,48.52
2022-11-17T01:45:17.136Z,48.62
2022-11-17T01:51:41.447Z,48.67
2022-11-17T01:58:08.641Z,48.74
2022-11-17T02:04:33.015Z,48.82
2022-11-17T02:10:57.341Z,48.83
2022-11-17T02:17:21.786Z,48.79
2022-11-17T02:23:54.922Z,48.85
2022-11-17T02:30:31.151Z,48.84
2022-11-17T02:36:58.191Z,48.90
2022-11-17T02:43:20.876Z,48.87
2022-11-17T02:49:54.879Z,48.87
2022-11-17T02:56:19.146Z,48.93
2022-11-17T03:02:43.592Z,48.99
2022-11-17T03:09:25.731Z,49.24
2022-11-17T03:15:55.774Z,49.29
2022-11-17T03:22:32.175Z,49.34
2022-11-17T03:28:56.619Z,49.36
2022-11-17T03:35:20.892Z,49.35
2022-11-17T03:41:45.207Z,49.34
2022-11-17T03:48:09.721Z,49.33
2022-11-17T03:54:34.032Z,49.36
2022-11-17T04:01:04.789Z,49.37
2022-11-17T04:07:29.174Z,49.31
2022-11-17T04:13:52.128Z,49.29
2022-11-17T04:20:16.453Z,49.27
2022-11-17T04:26:39.476Z,49.23
2022-11-17T04:33:03.870Z,49.23
2022-11-17T04:39:28.176Z,49.34
2022-11-17T04:45:52.508Z,49.43
2022-11-17T04:52:16.796Z,49.41
2022-11-17T04:58:41.543Z,49.41
2022-11-17T05:05:17.925Z,49.45
2022-11-17T05:11:40.616Z,49.42
2022-11-17T05:18:05.047Z,49.37
2022-11-17T05:24:29.395Z,49.39
2022-11-17T05:30:53.727Z,49.40
2022-11-17T05:37:17.996Z,49.57
2022-11-17T05:43:42.371Z,49.67
2022-11-17T05:50:06.643Z,49.81
2022-11-17T05:56:30.937Z,49.89
2022-11-17T06:03:04.412Z,49.85
2022-11-17T06:09:28.942Z,49.76
2022-11-17T06:15:53.214Z,49.61
2022-11-17T06:22:17.550Z,49.43
2022-11-17T06:28:41.825Z,49.20
2022-11-17T06:34:58.688Z,48.99
2022-11-17T06:41:23.137Z,48.77
2022-11-17T06:47:47.569Z,48.55
2022-11-17T06:54:12.141Z,48.40
2022-11-17T07:00:36.441Z,48.23
2022-11-17T07:07:00.748Z,48.05
2022-11-17T07:13:25.142Z,47.91
2022-11-17T07:19:49.481Z,47.79
2022-11-17T07:26:13.778Z,47.66
2022-11-17T07:32:38.055Z,47.58
2022-11-17T07:39:02.365Z,47.55
2022-11-17T07:45:31.648Z,47.53
2022-11-17T07:51:56.661Z,47.54
2022-11-17T07:58:21.123Z,47.57
2022-11-17T08:04:45.659Z,47.59
2022-11-17T08:11:10.095Z,47.43
2022-11-17T08:17:29.604Z,47.35
2022-11-17T08:23:53.927Z,47.44
2022-11-17T08:30:18.334Z,47.63
2022-11-17T08:36:42.790Z,47.78
2022-11-17T08:43:07.263Z,47.70
2022-11-17T08:49:31.640Z,47.67
2022-11-17T08:55:56.090Z,47.51
2022-11-17T09:02:20.389Z,47.49
2022-11-17T09:08:46.634Z,47.64
2022-11-17T09:15:11.662Z,48.22
2022-11-17T09:21:36.068Z,48.56
2022-11-17T09:28:00.396Z,48.44
2022-11-17T09:34:18.618Z,48.44
2022-11-17T09:40:42.983Z,48.42
2022-11-17T09:47:12.943Z,48.44
2022-11-17T09:53:55.788Z,48.44
2022-11-17T10:00:20.061Z,48.26
2022-11-17T10:06:44.375Z,48.21
2022-11-17T10:13:08.687Z,48.37
2022-11-17T10:19:33.028Z,48.70
2022-11-17T10:26:03.073Z,49.27
2022-11-17T10:32:27.476Z,49.77
2022-11-17T10:38:54.754Z,50.37
2022-11-17T10:45:25.011Z,50.76
2022-11-17T10:51:58.423Z,51.07
2022-11-17T10:58:22.730Z,51.16
2022-11-17T11:04:47.156Z,51.18
2022-11-17T11:11:14.344Z,51.22
2022-11-17T11:17:38.635Z,51.18
2022-11-17T11:24:15.264Z,51.07
2022-11-17T11:30:52.148Z,51.11
2022-11-17T11:37:20.762Z,50.89
2022-11-17T11:44:03.387Z,50.84
2022-11-17T11:50:41.637Z,50.73
2022-11-17T11:57:18.072Z,50.58
2022-11-17T12:03:45.131Z,50.35
2022-11-17T12:10:21.305Z,50.14
2022-11-17T12:16:50.596Z,49.94
2022-11-17T12:23:14.867Z,49.77
2022-11-17T12:30:00.543Z,49.67
2022-11-17T12:36:31.197Z,49.56
2022-11-17T12:43:04.715Z,49.22
2022-11-17T12:49:31.913Z,48.96
2022-11-17T12:56:13.629Z,48.78
2022-11-17T13:02:40.881Z,48.75
2022-11-17T13:09:17.400Z,48.73
2022-11-17T13:15:41.812Z,48.52
2022-11-17T13:22:06.226Z,48.33
2022-11-17T13:28:30.616Z,48.24
2022-11-17T13:35:04.105Z,48.03
2022-11-17T13:41:28.417Z,47.80
2022-11-17T13:47:58.283Z,47.58
2022-11-17T13:54:22.719Z,47.36
2022-11-17T14:00:47.480Z,47.20
2022-11-17T14:07:11.876Z,47.06
2022-11-17T14:13:40.537Z,46.92
2022-11-17T14:20:05.060Z,46.82
2022-11-17T14:26:29.620Z,46.64
2022-11-17T14:32:56.000Z,46.49
2022-11-17T14:39:22.611Z,46.31
2022-11-17T14:45:47.165Z,46.23
2022-11-17T14:52:10.445Z,46.11
2022-11-17T14:58:34.869Z,45.96
2022-11-17T15:04:59.629Z,45.73
2022-11-17T15:11:24.474Z,45.45
2022-11-17T15:17:48.859Z,45.42
2022-11-17T15:24:13.682Z,46.52
2022-11-17T15:30:38.251Z,48.42
2022-11-17T15:37:02.648Z,48.06
2022-11-17T15:43:27.086Z,46.86
2022-11-17T15:49:51.563Z,46.50
2022-11-17T15:56:15.875Z,46.14
2022-11-17T16:02:40.204Z,46.00
2022-11-17T16:09:04.524Z,46.13
2022-11-17T16:15:28.917Z,46.29
2022-11-17T16:21:53.262Z,46.33
2022-11-17T16:28:17.235Z,46.12
2022-11-17T16:34:41.535Z,45.69
2022-11-17T16:41:06.150Z,45.48
2022-11-17T16:47:30.441Z,45.12
2022-11-17T16:53:54.882Z,44.87
2022-11-17T17:00:19.239Z,44.69
2022-11-17T17:06:43.819Z,44.52
2022-11-17T17:13:08.316Z,44.33
2022-11-17T17:19:35.352Z,44.15
2022-11-17T17:25:59.729Z,43.98
2022-11-17T17:32:24.029Z,43.81
2022-11-17T17:38:54.631Z,43.60
2022-11-17T17:45:19.634Z,43.48
2022-11-17T17:51:46.820Z,43.36
2022-11-17T17:58:11.091Z,43.82
2022-11-17T18:04:35.397Z,43.92
2022-11-17T18:10:59.816Z,43.94
2022-11-17T18:17:24.153Z,43.91
2022-11-17T18:23:48.472Z,43.91
2022-11-17T18:30:12.946Z,43.96
2022-11-17T18:36:31.139Z,43.79
2022-11-17T18:42:53.904Z,43.44
2022-11-17T18:49:13.696Z,43.28
2022-11-17T18:55:38.332Z,43.26
2022-11-17T19:02:08.705Z,43.24
2022-11-17T19:08:25.969Z,43.40
2022-11-17T19:14:50.332Z,43.63
2022-11-17T19:21:14.640Z,43.80
2022-11-17T19:27:39.080Z,43.80
2022-11-17T19:34:03.490Z,43.78
2022-11-17T19:40:27.788Z,43.75
2022-11-17T19:46:52.092Z,43.70
2022-11-17T19:53:16.496Z,43.60
2022-11-17T19:59:40.782Z,43.48
2022-11-17T20:06:05.240Z,43.36
2022-11-17T20:12:28.253Z,43.27
2022-11-17T20:18:53.557Z,43.21
2022-11-17T20:25:17.843Z,43.07
2022-11-17T20:31:47.910Z,42.97
2022-11-17T20:38:15.656Z,42.89
2022-11-17T20:44:46.401Z,42.76
2022-11-17T20:50:59.519Z,42.64
2022-11-17T20:57:23.849Z,42.40
2022-11-17T21:03:48.218Z,42.29
2022-11-17T21:10:12.530Z,42.11
2022-11-17T21:16:48.871Z,41.98
2022-11-17T21:23:13.244Z,41.86
2022-11-17T21:29:37.673Z,41.91
2022-11-17T21:36:01.979Z,41.86
2022-11-17T21:42:13.155Z,41.92
2022-11-17T21:48:37.470Z,41.83
2022-11-17T21:55:01.898Z,41.93
2022-11-17T22:01:26.504Z,41.97
2022-11-17T22:07:50.916Z,41.96
2022-11-17T22:14:15.209Z,42.17
2022-11-17T22:20:39.665Z,42.22
2022-11-17T22:27:03.957Z,42.11
2022-11-17T22:33:28.395Z,42.04
2022-11-17T22:39:52.701Z,42.00
2022-11-17T22:46:17.026Z,41.95
2022-11-17T22:52:41.304Z,41.91
2022-11-17T22:58:59.981Z,41.94
2022-11-17T23:05:24.543Z,42.01
2022-11-17T23:11:48.819Z,42.08
2022-11-17T23:18:13.242Z,42.20
2022-11-17T23:24:37.633Z,42.25
2022-11-17T23:31:02.082Z,42.28
2022-11-17T23:37:26.795Z,42.30
2022-11-17T23:43:51.065Z,42.30
2022-11-17T23:50:15.452Z,42.30
2022-11-17T23:56:32.410Z,42.31
